Time;durP1;ratioP1;P1;durP2;ratioP2;P2;SDS_P1;SDS_P2;PMS_P1;PMS_P2;Temp;Humidity;BMP_temperature;BMP_pressure;BME280_temperature;BME280_humidity;BME280_pressure;Samples;Min_cycle;Max_cycle;Signal;HPM_P1;HPM_P2
2024/01/27 10:05:06;;;;;;;11.77;4.70;;;6.60;99.90;;;;;;5433377;22;20499;-82
2024/01/27 10:07:34;;;;;;;11.07;5.90;;;6.60;99.90;;;;;;4931805;29;20538;-81
2024/01/27 10:10:26;;;;;;;7.63;4.20;;;6.60;99.90;;;;;;4957197;28;20463;-81
2024/01/27 10:13:17;;;;;;;8.57;4.37;;;6.60;99.90;;;;;;4960858;28;20443;-82
2024/01/27 10:15:43;;;;;;;6.93;4.95;;;6.60;99.90;;;;;;4958001;28;20454;-82
2024/01/27 10:18:15;;;;;;;9.20;4.53;;;6.60;99.90;;;;;;4971281;28;20267;-80
2024/01/27 10:20:47;;;;;;;8.57;3.60;;;6.60;99.90;;;;;;4961086;28;20474;-82
2024/01/27 10:23:20;;;;;;;9.40;4.83;;;6.60;99.90;;;;;;4963570;28;20535;-82
2024/01/27 10:25:55;;;;;;;7.60;3.80;;;6.70;99.90;;;;;;5069010;28;20800;-29
2024/01/27 10:28:25;;;;;;;11.30;4.50;;;6.60;99.90;;;;;;5062507;28;20448;-31
2024/01/27 10:30:52;;;;;;;9.70;4.00;;;6.70;99.90;;;;;;5052389;28;20978;-24
2024/01/27 10:33:18;;;;;;;8.10;4.23;;;6.70;99.90;;;;;;5051676;28;20434;-25
2024/01/27 10:35:44;;;;;;;9.90;4.27;;;6.70;99.90;;;;;;5047372;28;20901;-23
2024/01/27 10:38:10;;;;;;;9.50;5.33;;;6.70;99.90;;;;;;5054612;28;20452;-25
2024/01/27 10:40:41;;;;;;;11.10;4.23;;;6.70;99.90;;;;;;5040670;28;20458;-27
2024/01/27 10:43:08;;;;;;;8.52;4.63;;;6.70;99.90;;;;;;5049131;28;20509;-25
2024/01/27 10:45:39;;;;;;;8.33;4.03;;;6.70;99.90;;;;;;5053762;28;20923;-23
2024/01/27 10:48:10;;;;;;;10.70;4.70;;;6.70;99.90;;;;;;5057003;28;20560;-25
2024/01/27 10:50:38;;;;;;;18.20;5.43;;;6.70;99.90;;;;;;5033464;28;20449;-24
2024/01/27 10:53:08;;;;;;;16.30;5.10;;;6.70;99.90;;;;;;5050943;28;20959;-24
2024/01/27 10:55:37;;;;;;;23.47;5.43;;;6.70;99.90;;;;;;5055717;28;20435;-26
2024/01/27 10:58:03;;;;;;;20.30;5.47;;;6.80;99.90;;;;;;5051812;28;20774;-24
2024/01/27 11:00:33;;;;;;;13.23;5.10;;;6.90;99.90;;;;;;5053703;28;20438;-25
2024/01/27 11:03:02;;;;;;;11.17;5.63;;;6.90;99.90;;;;;;5041523;28;20532;-25
2024/01/27 11:05:29;;;;;;;13.70;4.97;;;6.90;99.90;;;;;;5051303;28;21012;-23
2024/01/27 11:07:57;;;;;;;16.60;5.20;;;7.00;99.90;;;;;;5051747;28;20406;-25
2024/01/27 11:10:27;;;;;;;19.53;5.40;;;7.00;99.90;;;;;;5049588;28;20458;-22
2024/01/27 11:12:55;;;;;;;9.70;6.17;;;7.00;99.90;;;;;;5052390;28;20427;-25
2024/01/27 11:15:24;;;;;;;14.87;5.23;;;7.10;99.90;;;;;;5049631;28;20430;-23
2024/01/27 11:17:51;;;;;;;11.90;5.13;;;7.10;99.90;;;;;;5048098;28;20954;-23
2024/01/27 11:20:23;;;;;;;14.93;6.00;;;7.10;99.90;;;;;;5055415;28;20521;-25
2024/01/27 11:22:52;;;;;;;14.87;6.63;;;7.10;99.90;;;;;;5053929;28;20513;-25
2024/01/27 11:25:25;;;;;;;15.67;5.70;;;7.10;99.90;;;;;;5051621;28;20924;-24
2024/01/27 11:27:54;;;;;;;21.13;5.50;;;7.20;99.90;;;;;;5047512;28;20542;-25
2024/01/27 11:30:37;;;;;;;10.50;4.93;;;7.20;99.90;;;;;;5038527;28;20450;-24
2024/01/27 11:33:12;;;;;;;17.20;5.60;;;7.20;99.90;;;;;;5044354;28;20422;-24
2024/01/27 11:35:40;;;;;;;14.07;5.03;;;7.20;99.90;;;;;;5040779;28;20502;-24
2024/01/27 11:38:09;;;;;;;9.30;5.07;;;7.30;99.90;;;;;;5026038;28;20853;-24
2024/01/27 11:40:45;;;;;;;9.70;4.97;;;7.30;99.90;;;;;;5032590;28;20458;-24
2024/01/27 11:43:14;;;;;;;13.20;5.20;;;7.30;99.90;;;;;;5039894;28;20791;-25
2024/01/27 11:45:55;;;;;;;13.73;5.23;;;7.30;99.90;;;;;;5031745;28;20880;-24
2024/01/27 11:48:22;;;;;;;13.60;5.47;;;7.40;99.90;;;;;;5026152;28;20443;-24
2024/01/27 11:51:10;;;;;;;10.37;5.30;;;7.40;99.90;;;;;;5032768;28;20473;-26
2024/01/27 11:53:36;;;;;;;13.00;5.17;;;7.40;99.90;;;;;;5022092;28;20436;-23
2024/01/27 11:56:06;;;;;;;18.37;5.57;;;7.40;99.90;;;;;;5028520;28;20648;-25
2024/01/27 11:58:34;;;;;;;12.60;5.20;;;7.50;99.90;;;;;;5031417;28;20462;-24
2024/01/27 12:01:05;;;;;;;15.23;4.70;;;7.50;99.90;;;;;;5029172;28;20435;-25
2024/01/27 12:03:32;;;;;;;16.10;4.50;;;7.50;99.90;;;;;;5024412;28;20493;-24
2024/01/27 12:05:58;;;;;;;13.13;6.10;;;7.50;99.90;;;;;;5032954;28;20419;-24
2024/01/27 12:08:27;;;;;;;13.20;4.60;;;7.60;99.90;;;;;;5029940;28;20452;-26
2024/01/27 12:10:56;;;;;;;8.57;4.80;;;7.60;99.90;;;;;;5030153;28;20473;-25
2024/01/27 12:13:23;;;;;;;16.47;5.57;;;7.60;99.90;;;;;;5035434;28;21084;-25
2024/01/27 12:15:49;;;;;;;10.47;5.10;;;7.60;99.90;;;;;;5026645;28;20522;-26
2024/01/27 12:18:18;;;;;;;14.17;5.27;;;7.70;99.90;;;;;;5028373;28;20447;-24
2024/01/27 12:20:54;;;;;;;16.77;6.30;;;7.70;99.90;;;;;;5008076;28;20486;-24
2024/01/27 12:23:22;;;;;;;16.13;4.70;;;7.70;99.90;;;;;;5061194;28;21097;-23
2024/01/27 12:25:55;;;;;;;11.13;4.43;;;7.80;99.90;;;;;;5030722;28;20506;-23
2024/01/27 12:28:24;;;;;;;12.93;5.10;;;7.80;99.90;;;;;;5033241;28;20967;-25
2024/01/27 12:30:52;;;;;;;10.40;4.93;;;7.80;99.90;;;;;;5032138;28;20475;-28
2024/01/27 12:33:25;;;;;;;9.97;4.90;;;7.80;99.90;;;;;;5023356;28;20436;-27
2024/01/27 12:35:55;;;;;;;15.40;4.97;;;7.90;99.90;;;;;;5026186;28;20428;-26
2024/01/27 12:38:22;;;;;;;21.80;5.00;;;7.90;99.90;;;;;;5034052;28;20489;-26
2024/01/27 12:40:48;;;;;;;17.13;4.80;;;7.90;99.90;;;;;;5022330;28;20465;-27
2024/01/27 12:43:16;;;;;;;12.80;4.30;;;7.90;99.90;;;;;;5007006;28;20873;-26
2024/01/27 12:45:42;;;;;;;14.50;4.33;;;7.90;99.90;;;;;;5022529;28;20216;-30
2024/01/27 12:48:13;;;;;;;18.00;4.77;;;7.90;99.90;;;;;;5020284;28;20447;-32
2024/01/27 12:50:39;;;;;;;9.97;5.60;;;7.90;99.90;;;;;;5023256;28;20440;-29
2024/01/27 12:53:07;;;;;;;9.70;4.33;;;8.00;99.90;;;;;;5021100;28;20530;-31
2024/01/27 12:55:33;;;;;;;12.40;4.63;;;8.00;99.90;;;;;;5021568;28;21339;-32
2024/01/27 12:57:59;;;;;;;18.60;4.60;;;8.00;99.80;;;;;;5002600;28;20547;-32
2024/01/27 13:00:26;;;;;;;11.10;4.67;;;8.00;99.60;;;;;;5019034;28;20455;-31
2024/01/27 13:02:54;;;;;;;11.27;4.07;;;7.90;99.40;;;;;;5002478;28;21471;-30
2024/01/27 13:05:22;;;;;;;13.07;4.73;;;8.00;99.30;;;;;;5020086;28;20482;-26
2024/01/27 13:07:49;;;;;;;12.53;5.77;;;8.00;99.30;;;;;;5020142;28;20426;-33
2024/01/27 13:10:17;;;;;;;11.13;4.40;;;8.00;99.30;;;;;;5018486;28;20432;-30
2024/01/27 13:12:44;;;;;;;14.20;4.40;;;8.00;99.10;;;;;;5019925;28;20432;-30
2024/01/27 13:15:18;;;;;;;11.17;3.77;;;8.00;99.00;;;;;;5019563;28;20424;-33
2024/01/27 13:17:44;;;;;;;12.57;6.07;;;8.00;98.90;;;;;;5018457;28;20427;-31
2024/01/27 13:20:11;;;;;;;13.07;4.70;;;8.10;98.90;;;;;;5019921;28;20496;-31
2024/01/27 13:22:38;;;;;;;6.33;4.43;;;8.10;98.90;;;;;;5018998;28;20466;-35
2024/01/27 13:25:05;;;;;;;7.97;4.40;;;8.10;98.70;;;;;;5002575;28;20511;-32
2024/01/27 13:27:31;;;;;;;12.73;4.17;;;8.10;98.70;;;;;;5019087;28;20887;-33
2024/01/27 13:30:00;;;;;;;13.00;4.40;;;8.10;98.90;;;;;;5002339;28;20457;-31
2024/01/27 13:32:26;;;;;;;12.50;4.53;;;8.10;99.10;;;;;;5020740;28;20440;-32
2024/01/27 13:34:52;;;;;;;18.10;4.43;;;8.10;99.30;;;;;;5002262;28;20843;-28
2024/01/27 13:37:20;;;;;;;11.93;4.53;;;8.10;99.30;;;;;;5019994;28;20423;-31
2024/01/27 13:39:46;;;;;;;8.20;3.80;;;8.10;99.50;;;;;;5018861;28;20479;-32
2024/01/27 13:42:12;;;;;;;14.33;4.07;;;8.10;99.70;;;;;;5019775;28;20893;-29
2024/01/27 13:44:41;;;;;;;10.33;3.67;;;8.00;99.80;;;;;;5019171;28;20465;-30
2024/01/27 13:47:09;;;;;;;15.30;3.70;;;8.00;99.90;;;;;;5019158;28;20412;-26
2024/01/27 13:49:37;;;;;;;14.33;4.17;;;7.90;99.90;;;;;;5019460;28;20424;-31
2024/01/27 13:52:03;;;;;;;13.63;3.70;;;7.90;99.90;;;;;;5018611;28;20443;-30
2024/01/27 13:54:34;;;;;;;9.30;4.23;;;7.90;99.90;;;;;;5019833;28;20484;-30
2024/01/27 13:57:03;;;;;;;9.87;4.10;;;7.80;99.90;;;;;;5019953;28;20524;-28
2024/01/27 13:59:30;;;;;;;10.13;4.00;;;7.80;99.90;;;;;;5006189;28;20435;-34
2024/01/27 14:01:59;;;;;;;10.27;3.77;;;7.80;99.90;;;;;;5030742;28;20443;-25
2024/01/27 14:04:25;;;;;;;6.60;3.27;;;7.80;99.90;;;;;;5026455;28;20468;-25
2024/01/27 14:07:02;;;;;;;11.00;4.30;;;7.80;99.90;;;;;;5031231;28;20933;-25
2024/01/27 14:09:30;;;;;;;11.00;4.40;;;7.70;99.90;;;;;;5025172;28;20439;-25
2024/01/27 14:11:56;;;;;;;11.40;3.90;;;7.70;99.90;;;;;;5026509;28;20443;-25
2024/01/27 14:14:22;;;;;;;6.10;3.73;;;7.70;99.90;;;;;;5030372;28;20428;-30
2024/01/27 14:16:48;;;;;;;5.60;3.47;;;7.60;99.90;;;;;;5030538;28;20469;-28
2024/01/27 14:19:14;;;;;;;11.50;4.10;;;7.70;99.90;;;;;;5035054;28;20484;-25
2024/01/27 14:21:44;;;;;;;9.10;3.30;;;7.70;99.90;;;;;;5018569;28;20443;-25
2024/01/27 14:24:12;;;;;;;12.93;4.37;;;7.80;99.60;;;;;;5029318;28;20930;-27
2024/01/27 14:26:40;;;;;;;11.70;3.50;;;7.90;99.10;;;;;;5034579;28;20519;-28
2024/01/27 14:29:07;;;;;;;9.00;3.50;;;8.00;98.50;;;;;;5031378;28;20427;-27
2024/01/27 14:31:33;;;;;;;11.23;4.07;;;8.00;98.20;;;;;;5028201;28;20546;-26
2024/01/27 14:33:59;;;;;;;9.97;3.40;;;8.10;97.80;;;;;;5025291;28;20463;-27
2024/01/27 14:36:28;;;;;;;14.23;3.83;;;8.10;97.20;;;;;;5017721;28;20434;-25
2024/01/27 14:38:57;;;;;;;9.57;4.40;;;8.20;97.20;;;;;;5031803;28;20419;-25
2024/01/27 14:41:26;;;;;;;7.00;3.50;;;8.20;97.20;;;;;;5017317;28;20490;-25
2024/01/27 14:43:52;;;;;;;5.33;3.23;;;8.30;96.80;;;;;;5022093;28;20443;-27
2024/01/27 14:46:19;;;;;;;7.27;3.60;;;8.30;96.60;;;;;;5025017;28;20656;-25
2024/01/27 14:48:45;;;;;;;9.57;4.07;;;8.30;96.30;;;;;;5022271;28;20435;-26
2024/01/27 14:51:12;;;;;;;7.87;3.70;;;8.30;96.00;;;;;;5025999;28;20823;-26
2024/01/27 14:53:38;;;;;;;12.67;4.07;;;8.30;95.50;;;;;;5022884;28;20463;-25
2024/01/27 14:56:06;;;;;;;10.40;3.80;;;8.30;95.40;;;;;;5023990;28;20427;-26
2024/01/27 14:58:32;;;;;;;7.07;3.27;;;8.40;95.40;;;;;;5028939;28;20439;-27
2024/01/27 15:01:00;;;;;;;7.50;4.00;;;8.40;95.20;;;;;;5029722;28;20455;-29
2024/01/27 15:03:26;;;;;;;11.97;4.10;;;8.40;94.90;;;;;;5026262;28;20449;-26
2024/01/27 15:05:52;;;;;;;8.27;3.67;;;8.30;94.80;;;;;;5035594;28;21055;-26
2024/01/27 15:08:21;;;;;;;6.47;3.47;;;8.20;94.50;;;;;;5023152;28;20443;-24
2024/01/27 15:10:48;;;;;;;9.57;3.30;;;8.00;92.70;;;;;;5027597;28;21005;-29
2024/01/27 15:13:16;;;;;;;4.97;3.13;;;8.00;93.00;;;;;;5027736;28;20423;-32
2024/01/27 15:15:43;;;;;;;9.70;3.80;;;8.10;93.60;;;;;;5015800;28;20477;-30
2024/01/27 15:18:11;;;;;;;9.30;3.23;;;8.20;93.60;;;;;;5026982;28;20461;-28
2024/01/27 15:20:37;;;;;;;8.47;3.43;;;8.20;93.30;;;;;;5026263;28;20450;-30
2024/01/27 15:23:03;;;;;;;9.17;3.73;;;8.10;92.90;;;;;;5029453;28;20431;-25
2024/01/27 15:25:30;;;;;;;6.50;3.03;;;8.00;92.90;;;;;;5025859;28;20552;-28
2024/01/27 15:27:57;;;;;;;7.23;3.50;;;8.00;93.20;;;;;;5024563;28;20723;-29
2024/01/27 15:30:23;;;;;;;10.20;3.43;;;8.10;93.50;;;;;;5029067;28;20874;-27
2024/01/27 15:32:49;;;;;;;12.87;3.87;;;8.20;93.80;;;;;;5018364;28;20514;-28
2024/01/27 15:35:18;;;;;;;5.63;2.80;;;8.20;93.30;;;;;;5036248;28;20456;-29
2024/01/27 15:37:44;;;;;;;12.90;3.63;;;8.10;93.70;;;;;;5027606;28;20436;-29
2024/01/27 15:40:10;;;;;;;6.70;3.70;;;8.10;94.40;;;;;;5025289;28;20446;-32
2024/01/27 15:42:37;;;;;;;7.77;3.23;;;8.20;95.10;;;;;;5024669;28;20435;-32
2024/01/27 15:45:04;;;;;;;8.67;3.47;;;8.20;95.80;;;;;;5024386;28;21163;-29
2024/01/27 15:47:33;;;;;;;8.63;3.53;;;8.20;95.90;;;;;;5029122;28;20544;-30
2024/01/27 15:50:05;;;;;;;3.63;2.53;;;8.20;96.10;;;;;;5020496;28;20424;-28
2024/01/27 15:52:33;;;;;;;4.60;3.07;;;8.10;96.10;;;;;;5035293;28;20417;-30
2024/01/27 15:54:59;;;;;;;10.70;3.67;;;8.00;96.40;;;;;;5029643;28;20439;-30
2024/01/27 15:57:25;;;;;;;177.93;17.00;;;7.90;96.70;;;;;;5025398;28;20556;-32
2024/01/27 15:59:52;;;;;;;41.27;6.87;;;7.90;97.00;;;;;;5029882;28;20478;-33
2024/01/27 16:02:22;;;;;;;39.20;5.93;;;7.80;96.90;;;;;;5027044;28;20535;-30
2024/01/27 16:04:49;;;;;;;18.33;5.30;;;7.70;97.30;;;;;;5043090;23;20494;-25
2024/01/27 16:07:15;;;;;;;11.53;4.57;;;7.60;97.60;;;;;;5027401;28;20428;-28
2024/01/27 16:09:48;;;;;;;18.07;4.23;;;7.60;98.10;;;;;;5028307;28;20857;-27
2024/01/27 16:12:17;;;;;;;18.90;4.23;;;7.50;98.50;;;;;;5004923;28;20416;-26
2024/01/27 16:14:42;;;;;;;19.00;5.70;;;7.50;98.90;;;;;;4990430;28;20523;-26
2024/01/27 16:17:11;;;;;;;16.63;4.53;;;7.50;99.10;;;;;;5009817;28;20515;-26
2024/01/27 16:19:37;;;;;;;16.27;4.13;;;7.50;99.30;;;;;;5010459;28;21099;-25
2024/01/27 16:22:03;;;;;;;16.53;4.30;;;7.50;99.40;;;;;;5009069;28;20448;-26
2024/01/27 16:24:34;;;;;;;12.53;3.73;;;7.50;99.60;;;;;;5009302;28;20546;-28
2024/01/27 16:27:05;;;;;;;16.00;4.30;;;7.50;99.70;;;;;;4993655;28;20441;-25
2024/01/27 16:29:31;;;;;;;10.07;3.83;;;7.50;99.70;;;;;;5016831;28;20859;-25
2024/01/27 16:32:00;;;;;;;9.53;3.73;;;7.50;99.90;;;;;;5011107;28;20869;-26
2024/01/27 16:34:27;;;;;;;10.63;4.07;;;7.50;99.90;;;;;;5006828;28;20209;-26
2024/01/27 16:36:55;;;;;;;7.63;3.67;;;7.50;99.90;;;;;;5012511;28;20514;-26
2024/01/27 16:39:21;;;;;;;15.03;4.67;;;7.50;99.90;;;;;;5008760;28;20812;-27
2024/01/27 16:41:50;;;;;;;11.63;3.80;;;7.50;99.90;;;;;;5010506;28;20927;-25
2024/01/27 16:44:16;;;;;;;11.70;3.43;;;7.50;99.90;;;;;;5009540;28;20993;-26
2024/01/27 16:46:45;;;;;;;9.13;3.67;;;7.50;99.90;;;;;;5000437;28;21017;-25
2024/01/27 16:49:12;;;;;;;9.40;3.93;;;7.50;99.90;;;;;;5008050;28;20447;-27
2024/01/27 16:51:43;;;;;;;12.50;3.17;;;7.50;99.90;;;;;;5016694;28;20816;-28
2024/01/27 16:54:12;;;;;;;11.03;3.20;;;7.50;99.90;;;;;;5011328;28;20443;-25
2024/01/27 16:56:42;;;;;;;5.10;3.07;;;7.50;99.90;;;;;;5013782;28;20464;-27
2024/01/27 16:59:08;;;;;;;8.50;3.90;;;7.50;99.90;;;;;;4991135;28;21047;-26
2024/01/27 17:01:39;;;;;;;10.93;3.70;;;7.50;99.90;;;;;;5003338;28;20978;-26
2024/01/27 17:04:07;;;;;;;7.10;2.97;;;7.50;99.90;;;;;;5001811;28;20479;-25
2024/01/27 17:06:35;;;;;;;11.10;3.00;;;7.50;99.90;;;;;;5015303;28;20428;-26
2024/01/27 17:09:02;;;;;;;7.63;2.60;;;7.50;99.90;;;;;;5008801;28;20760;-25
2024/01/27 17:11:28;;;;;;;7.17;4.00;;;7.50;99.90;;;;;;4995509;28;20452;-25
2024/01/27 17:13:56;;;;;;;7.97;2.90;;;7.50;99.90;;;;;;5012446;28;20482;-25
2024/01/27 17:16:29;;;;;;;5.73;3.30;;;7.40;99.90;;;;;;5011198;28;21069;-28
2024/01/27 17:18:55;;;;;;;7.00;3.30;;;7.40;99.90;;;;;;5012486;28;20464;-33
2024/01/27 17:21:22;;;;;;;6.60;3.53;;;7.40;99.90;;;;;;5006554;28;20469;-26
2024/01/27 17:23:48;;;;;;;6.60;2.63;;;7.40;99.90;;;;;;5008981;28;20441;-28
2024/01/27 17:26:16;;;;;;;10.30;3.40;;;7.40;99.90;;;;;;5006412;28;20924;-26
2024/01/27 17:28:44;;;;;;;5.10;2.80;;;7.40;99.90;;;;;;5015540;28;20549;-26
2024/01/27 17:31:12;;;;;;;6.03;3.07;;;7.40;99.90;;;;;;5015260;28;20951;-25
2024/01/27 17:33:39;;;;;;;8.03;3.00;;;7.40;99.90;;;;;;5023196;28;20421;-28
2024/01/27 17:36:05;;;;;;;7.07;2.40;;;7.40;99.90;;;;;;5014197;28;20424;-25
2024/01/27 17:38:32;;;;;;;7.60;2.97;;;7.40;99.90;;;;;;5009090;28;20450;-25
2024/01/27 17:40:58;;;;;;;5.67;3.03;;;7.40;99.90;;;;;;5011682;28;20487;-26
2024/01/27 17:43:29;;;;;;;4.57;3.03;;;7.40;99.90;;;;;;5010136;28;20499;-25
2024/01/27 17:45:55;;;;;;;7.00;3.50;;;7.40;99.90;;;;;;5007308;28;20796;-25
2024/01/27 17:48:21;;;;;;;8.87;3.60;;;7.40;99.90;;;;;;5014881;28;20429;-26
2024/01/27 17:50:47;;;;;;;9.20;3.30;;;7.30;99.90;;;;;;5002654;28;20436;-26
2024/01/27 17:53:15;;;;;;;4.87;3.77;;;7.40;99.90;;;;;;5001920;28;20479;-26
2024/01/27 17:55:44;;;;;;;6.30;3.83;;;7.30;99.90;;;;;;5014563;28;20845;-27
2024/01/27 17:58:12;;;;;;;7.37;3.73;;;7.30;99.90;;;;;;5014942;28;20428;-26
2024/01/27 18:00:41;;;;;;;6.13;4.53;;;7.30;99.90;;;;;;4991717;28;21133;-26
2024/01/27 18:03:07;;;;;;;8.20;4.07;;;7.30;99.90;;;;;;5009742;28;20488;-26
2024/01/27 18:05:33;;;;;;;8.57;4.03;;;7.30;99.90;;;;;;5011289;28;21068;-25
2024/01/27 18:07:59;;;;;;;7.17;3.63;;;7.30;99.90;;;;;;5008549;28;20924;-25
2024/01/27 18:10:25;;;;;;;4.80;3.17;;;7.30;99.90;;;;;;5006396;28;20918;-27
2024/01/27 18:12:51;;;;;;;8.17;3.73;;;7.30;99.90;;;;;;5001048;28;20485;-27
2024/01/27 18:15:19;;;;;;;6.53;3.37;;;7.30;99.90;;;;;;5108361;22;20534;-32
2024/01/27 18:17:45;;;;;;;10.10;3.60;;;7.30;99.90;;;;;;4997172;28;20444;-30
2024/01/27 18:20:11;;;;;;;4.33;3.33;;;7.30;99.90;;;;;;5000490;28;20682;-33
2024/01/27 18:22:37;;;;;;;4.53;3.63;;;7.30;99.90;;;;;;5000744;28;20824;-34
2024/01/27 18:25:05;;;;;;;4.70;3.10;;;7.30;99.90;;;;;;5008725;28;20459;-30
2024/01/27 18:27:34;;;;;;;7.93;3.60;;;7.30;99.90;;;;;;5000434;28;20428;-35
2024/01/27 18:30:00;;;;;;;3.70;3.17;;;7.20;99.90;;;;;;5003095;28;20503;-32
2024/01/27 18:32:26;;;;;;;10.40;3.40;;;7.20;99.90;;;;;;4997891;28;20417;-36
2024/01/27 18:34:52;;;;;;;6.47;3.07;;;7.20;99.90;;;;;;5008115;28;20459;-32
2024/01/27 18:37:20;;;;;;;4.70;3.20;;;7.30;99.90;;;;;;5002091;28;20479;-37
2024/01/27 18:39:45;;;;;;;7.70;3.00;;;7.30;99.90;;;;;;5009479;28;20420;-30
2024/01/27 18:42:14;;;;;;;5.27;2.97;;;7.30;99.90;;;;;;5006575;28;20423;-36
2024/01/27 18:44:41;;;;;;;8.60;3.63;;;7.20;99.90;;;;;;5004651;28;20583;-30
2024/01/27 18:47:08;;;;;;;5.07;3.37;;;7.20;99.90;;;;;;5002486;28;20546;-30
2024/01/27 18:49:34;;;;;;;4.63;3.30;;;7.20;99.90;;;;;;5005891;28;20431;-30
2024/01/27 18:52:00;;;;;;;7.40;3.63;;;7.20;99.90;;;;;;5006980;28;20947;-33
2024/01/27 18:54:26;;;;;;;5.00;3.37;;;7.20;99.90;;;;;;5004517;28;20444;-30
2024/01/27 18:56:55;;;;;;;5.47;3.30;;;7.20;99.90;;;;;;5008629;28;20440;-30
2024/01/27 18:59:27;;;;;;;9.00;3.50;;;7.20;99.90;;;;;;5006138;28;20560;-30
2024/01/27 19:01:57;;;;;;;4.50;3.13;;;7.20;99.90;;;;;;5004674;28;21014;-28
2024/01/27 19:04:23;;;;;;;5.77;3.60;;;7.20;99.90;;;;;;4996171;28;20465;-29
2024/01/27 19:06:49;;;;;;;3.87;3.23;;;7.20;99.90;;;;;;5005077;28;20482;-38
2024/01/27 19:09:15;;;;;;;7.53;3.80;;;7.20;99.90;;;;;;5005121;28;20835;-30
2024/01/27 19:11:44;;;;;;;6.67;3.77;;;7.20;99.90;;;;;;5006716;28;20436;-32
2024/01/27 19:14:10;;;;;;;5.50;3.37;;;7.20;99.90;;;;;;5003039;28;20451;-31
2024/01/27 19:16:38;;;;;;;4.80;3.70;;;7.20;99.90;;;;;;5004493;28;20427;-28
2024/01/27 19:19:04;;;;;;;6.30;3.50;;;7.10;99.90;;;;;;5008319;28;20437;-31
2024/01/27 19:21:31;;;;;;;6.37;3.57;;;7.10;99.90;;;;;;5003117;28;20453;-28
2024/01/27 19:24:00;;;;;;;6.27;3.90;;;7.10;99.90;;;;;;5003018;28;20436;-32
2024/01/27 19:26:28;;;;;;;6.77;4.00;;;7.10;99.90;;;;;;5008351;28;20455;-34
2024/01/27 19:28:54;;;;;;;7.03;3.70;;;7.10;99.90;;;;;;5005420;28;20425;-33
2024/01/27 19:31:20;;;;;;;6.67;4.20;;;7.10;99.90;;;;;;5012754;28;20471;-31
2024/01/27 19:33:46;;;;;;;6.00;3.87;;;7.10;99.90;;;;;;5004617;28;20968;-30
2024/01/27 19:36:13;;;;;;;6.03;3.70;;;7.10;99.90;;;;;;5006022;28;20802;-32
2024/01/27 19:38:40;;;;;;;6.57;4.10;;;7.10;99.90;;;;;;5008249;28;20987;-32
2024/01/27 19:41:10;;;;;;;7.13;4.23;;;7.10;99.90;;;;;;5004806;28;20428;-33
2024/01/27 19:43:40;;;;;;;4.63;4.17;;;7.10;99.90;;;;;;5006449;28;20441;-29
2024/01/27 19:46:09;;;;;;;6.17;3.70;;;7.10;99.90;;;;;;5007552;28;20844;-30
2024/01/27 19:48:35;;;;;;;6.73;4.33;;;7.10;99.90;;;;;;5006028;28;20461;-28
2024/01/27 19:51:04;;;;;;;6.73;4.77;;;7.10;99.90;;;;;;5004162;28;20995;-31
2024/01/27 19:53:31;;;;;;;5.90;4.60;;;7.10;99.90;;;;;;5003190;28;20428;-30
2024/01/27 19:56:07;;;;;;;7.20;4.27;;;7.00;99.90;;;;;;5003525;28;20449;-32
2024/01/27 19:58:34;;;;;;;8.03;4.30;;;7.10;99.90;;;;;;5000139;28;20454;-31
2024/01/27 20:01:00;;;;;;;5.80;4.80;;;7.10;99.90;;;;;;5015434;28;20444;-32
2024/01/27 20:03:26;;;;;;;6.63;4.40;;;7.10;99.90;;;;;;5005096;28;20440;-33
2024/01/27 20:05:55;;;;;;;6.67;4.33;;;7.00;99.90;;;;;;4999747;28;20461;-31
2024/01/27 20:08:23;;;;;;;6.47;5.27;;;7.00;99.90;;;;;;4999931;28;20805;-30
2024/01/27 20:10:51;;;;;;;5.23;4.73;;;7.00;99.90;;;;;;5003248;28;20444;-31
2024/01/27 20:13:17;;;;;;;9.90;5.00;;;7.00;99.90;;;;;;4995594;28;20773;-32
2024/01/27 20:15:43;;;;;;;11.83;4.90;;;7.00;99.90;;;;;;5008676;28;20455;-30
2024/01/27 20:18:12;;;;;;;8.13;5.30;;;7.00;99.90;;;;;;5001644;28;20433;-29
2024/01/27 20:20:40;;;;;;;8.23;5.57;;;7.00;99.90;;;;;;5013457;28;20542;-34
2024/01/27 20:23:06;;;;;;;10.00;5.00;;;7.00;99.90;;;;;;5001099;28;20446;-31
2024/01/27 20:25:34;;;;;;;6.63;4.87;;;7.00;99.90;;;;;;5003334;28;20528;-31
2024/01/27 20:28:06;;;;;;;9.90;5.13;;;7.00;99.90;;;;;;5001711;28;20425;-30
2024/01/27 20:30:33;;;;;;;7.23;5.10;;;7.00;99.90;;;;;;5002024;28;20447;-30
2024/01/27 20:32:59;;;;;;;8.00;5.53;;;7.00;99.90;;;;;;5004845;28;20431;-32
2024/01/27 20:35:28;;;;;;;10.20;5.50;;;7.00;99.90;;;;;;5007280;28;20618;-33
2024/01/27 20:37:57;;;;;;;13.33;5.50;;;7.00;99.90;;;;;;5003558;28;20433;-28
2024/01/27 20:40:24;;;;;;;8.10;4.90;;;6.90;99.90;;;;;;4986452;28;20464;-33
2024/01/27 20:42:52;;;;;;;8.02;5.40;;;6.90;99.90;;;;;;5002104;28;20502;-32
2024/01/27 20:45:18;;;;;;;7.87;4.80;;;6.90;99.90;;;;;;5026045;28;20617;-32
2024/01/27 20:47:50;;;;;;;8.70;4.70;;;6.90;99.90;;;;;;5007477;28;20428;-29
2024/01/27 20:50:19;;;;;;;7.70;5.50;;;6.90;99.90;;;;;;5005771;28;20499;-31
2024/01/27 20:52:45;;;;;;;6.50;4.50;;;6.90;99.90;;;;;;5009495;28;20922;-29
2024/01/27 20:55:11;;;;;;;8.30;5.00;;;6.90;99.90;;;;;;5017664;28;20434;-26
2024/01/27 20:57:37;;;;;;;7.70;5.33;;;6.90;99.90;;;;;;5004701;28;20464;-29
2024/01/27 21:00:03;;;;;;;8.03;5.30;;;6.90;99.90;;;;;;5006145;28;20464;-32
2024/01/27 21:02:30;;;;;;;13.40;5.80;;;6.90;99.90;;;;;;4986365;28;20449;-30
2024/01/27 21:04:59;;;;;;;6.00;5.20;;;6.90;99.90;;;;;;5012834;28;20505;-29
2024/01/27 21:07:25;;;;;;;7.60;5.43;;;6.90;99.90;;;;;;5010395;28;20427;-32
2024/01/27 21:10:19;;;;;;;12.07;6.80;;;6.90;99.90;;;;;;4997429;28;20437;-28
2024/01/27 21:12:47;;;;;;;11.17;5.43;;;6.90;99.90;;;;;;5001166;28;20944;-27
2024/01/27 21:15:17;;;;;;;8.70;6.20;;;6.80;99.90;;;;;;5005802;28;20910;-30
2024/01/27 21:17:46;;;;;;;9.87;6.40;;;6.80;99.90;;;;;;5007224;28;20437;-31
2024/01/27 21:20:14;;;;;;;7.67;5.40;;;6.80;99.90;;;;;;5006491;28;20456;-33
2024/01/27 21:22:44;;;;;;;9.63;6.43;;;6.80;99.90;;;;;;5009407;28;20440;-29
2024/01/27 21:25:13;;;;;;;11.23;7.30;;;6.80;99.90;;;;;;5011770;28;20529;-32
2024/01/27 21:27:39;;;;;;;10.90;7.03;;;6.80;99.90;;;;;;4997978;28;21139;-32
2024/01/27 21:30:08;;;;;;;8.57;6.37;;;6.80;99.90;;;;;;5002810;28;20462;-27
2024/01/27 21:32:36;;;;;;;8.73;5.30;;;6.80;99.90;;;;;;4982963;28;20802;-30
2024/01/27 21:35:03;;;;;;;9.03;5.70;;;6.80;99.90;;;;;;5000358;28;20453;-32
2024/01/27 21:37:29;;;;;;;9.80;6.40;;;6.80;99.90;;;;;;5005871;28;20966;-29
2024/01/27 21:40:00;;;;;;;9.07;5.70;;;6.80;99.90;;;;;;4999860;28;20440;-29
2024/01/27 21:42:28;;;;;;;7.50;5.70;;;6.80;99.90;;;;;;4999184;28;20420;-31
2024/01/27 21:44:54;;;;;;;9.47;5.80;;;6.80;99.90;;;;;;5000276;28;20482;-27
2024/01/27 21:47:22;;;;;;;5.90;5.30;;;6.80;99.90;;;;;;4998225;28;20767;-32
2024/01/27 21:49:53;;;;;;;7.23;5.00;;;6.80;99.90;;;;;;5005377;28;20996;-29
2024/01/27 21:52:19;;;;;;;9.93;5.80;;;6.70;99.90;;;;;;5013025;28;20464;-29
2024/01/27 21:54:45;;;;;;;9.10;6.13;;;6.70;99.90;;;;;;5010467;28;20440;-28
2024/01/27 21:57:11;;;;;;;8.00;5.40;;;6.70;99.90;;;;;;4989690;28;20505;-33
2024/01/27 21:59:37;;;;;;;8.60;6.20;;;6.70;99.90;;;;;;4998122;28;20490;-29
2024/01/27 22:02:05;;;;;;;10.30;5.60;;;6.70;99.90;;;;;;5002404;28;20500;-29
2024/01/27 22:04:31;;;;;;;7.40;5.70;;;6.70;99.90;;;;;;5030653;23;21036;-33
2024/01/27 22:06:59;;;;;;;8.37;5.07;;;6.70;99.90;;;;;;5013955;28;20481;-36
2024/01/27 22:09:25;;;;;;;7.70;5.43;;;6.70;99.90;;;;;;5022195;28;20978;-31
2024/01/27 22:11:52;;;;;;;8.63;5.87;;;6.70;99.90;;;;;;5020188;28;20501;-32
2024/01/27 22:14:20;;;;;;;10.20;5.20;;;6.70;99.90;;;;;;5023112;28;20898;-33
2024/01/27 22:16:51;;;;;;;7.87;6.10;;;6.70;99.90;;;;;;5021761;28;20977;-30
2024/01/27 22:19:17;;;;;;;8.27;5.00;;;6.60;99.90;;;;;;5027935;28;20439;-36
2024/01/27 22:21:43;;;;;;;7.40;5.57;;;6.60;99.90;;;;;;5003203;28;20478;-28
2024/01/27 22:24:09;;;;;;;8.67;5.47;;;6.60;99.90;;;;;;5002209;28;20482;-29
2024/01/27 22:26:37;;;;;;;8.27;5.67;;;6.60;99.90;;;;;;5031091;28;20435;-34
2024/01/27 22:29:03;;;;;;;11.53;6.17;;;6.60;99.90;;;;;;5029346;28;20424;-33
2024/01/27 22:31:32;;;;;;;12.00;5.67;;;6.60;99.90;;;;;;5027036;28;20469;-32
2024/01/27 22:34:01;;;;;;;9.23;5.43;;;6.60;99.90;;;;;;5023451;28;20427;-33
2024/01/27 22:36:27;;;;;;;8.83;5.27;;;6.60;99.90;;;;;;5020305;28;20498;-31
2024/01/27 22:38:53;;;;;;;7.77;5.10;;;6.60;99.90;;;;;;5021669;28;20439;-29
2024/01/27 22:41:19;;;;;;;7.57;4.93;;;6.60;99.90;;;;;;5022744;28;20454;-33
2024/01/27 22:43:48;;;;;;;8.52;5.22;;;6.60;99.90;;;;;;5023346;28;20505;-34
2024/01/27 22:46:14;;;;;;;11.93;5.90;;;6.60;99.90;;;;;;5022311;28;20213;-33
2024/01/27 22:48:45;;;;;;;6.72;5.00;;;6.60;99.90;;;;;;5021767;28;20196;-36
2024/01/27 22:51:13;;;;;;;8.80;5.13;;;6.60;99.90;;;;;;5029153;28;20694;-34
2024/01/27 22:53:39;;;;;;;7.27;5.17;;;6.60;99.90;;;;;;5023758;28;20213;-31
2024/01/27 22:56:06;;;;;;;8.57;4.83;;;6.60;99.90;;;;;;5025483;28;20811;-37
2024/01/27 22:58:34;;;;;;;7.80;4.97;;;6.60;99.90;;;;;;5045449;28;20731;-38
2024/01/27 23:01:00;;;;;;;6.43;5.10;;;6.60;99.90;;;;;;5045192;28;21041;-39